AFR45U HKJK-LFPG
Flight info
| Callsign | AFR45U |
|---|---|
| Flight time | N/A |
| Altitude | 38000 |
| Route | APKUB1A APKUB UQ293 EKMOG DCT NN UW325 SIPKI UT325 BUN UG862 GAMUS/N0487F400 UG862 DIR UB730 BOD UM508 TGU UJ36 BSA/N0483F410 UB726 ZEM/N0481F400 UB16 PECES N853 LUMAS DCT SOFFY DCT MRM DCT MTL DCT ETREK DCT RUSIT DCT BULOL DCT LOGNI DCT MOKIP DCT ARFOZ DCT TINIL TINIL9E |
| Aircraft | A359/H-SABDE2E3GHIJ1J2J3J4J5M1P2RWXYZ/LB1D1 |
Departure
| Time | 2026-05-07 15:58 |
|---|---|
| Airport | Jomo Kenyatta International Airport (HKJK) |
Arrival
| Time | N/A |
|---|---|
| Airport | Charles de Gaulle International Airport (LFPG) |
| Time | Latitude | Longitude | Altitude | Speed | Heading |
|---|---|---|---|---|---|
| 2026-05-07 15:09 | -1.33060 | 36.92298 | 5331 ft | 0 kts | 87° |
| 2026-05-07 15:37 | -1.33060 | 36.92296 | 5331 ft | 1 kts | 87° |
| 2026-05-07 15:38 | -1.33062 | 36.92279 | 5337 ft | 3 kts | 78° |
| 2026-05-07 15:38 | -1.33067 | 36.92261 | 5337 ft | 3 kts | 65° |
| 2026-05-07 15:38 | -1.33076 | 36.92244 | 5336 ft | 3 kts | 49° |
| 2026-05-07 15:38 | -1.33089 | 36.92231 | 5336 ft | 3 kts | 31° |
| 2026-05-07 15:39 | -1.33105 | 36.92223 | 5336 ft | 3 kts | 11° |
| 2026-05-07 15:39 | -1.33122 | 36.92221 | 5336 ft | 2 kts | 357° |
| 2026-05-07 15:54 | -1.33108 | 36.92220 | 5334 ft | 6 kts | 357° |
| 2026-05-07 15:54 | -1.33037 | 36.92217 | 5336 ft | 14 kts | 357° |
| 2026-05-07 15:54 | -1.32921 | 36.92245 | 5336 ft | 21 kts | 22° |
| 2026-05-07 15:54 | -1.32817 | 36.92221 | 5335 ft | 16 kts | 337° |
| 2026-05-07 15:55 | -1.32782 | 36.92206 | 5333 ft | 4 kts | 310° |
| 2026-05-07 15:55 | -1.32786 | 36.92175 | 5335 ft | 7 kts | 259° |
| 2026-05-07 15:55 | -1.32823 | 36.92107 | 5339 ft | 15 kts | 235° |
| 2026-05-07 15:55 | -1.32896 | 36.91999 | 5337 ft | 19 kts | 250° |
| 2026-05-07 15:56 | -1.32883 | 36.91865 | 5341 ft | 22 kts | 279° |
| 2026-05-07 15:56 | -1.32869 | 36.91766 | 5343 ft | 10 kts | 278° |
| 2026-05-07 15:56 | -1.32825 | 36.91693 | 5347 ft | 16 kts | 319° |
| 2026-05-07 15:56 | -1.32744 | 36.91658 | 5345 ft | 0 kts | 10° |
| 2026-05-07 15:57 | -1.32738 | 36.91665 | 5344 ft | 4 kts | 46° |
| 2026-05-07 15:57 | -1.32735 | 36.91670 | 5342 ft | 0 kts | 55° |
| 2026-05-07 15:57 | -1.32734 | 36.91671 | 5342 ft | 3 kts | 55° |
| 2026-05-07 15:57 | -1.32607 | 36.91844 | 5338 ft | 66 kts | 53° |
| 2026-05-07 15:58 | -1.32200 | 36.92403 | 5317 ft | 131 kts | 54° |
| 2026-05-07 15:58 | -1.31549 | 36.93290 | 5349 ft | 183 kts | 53° |
| 2026-05-07 15:58 | -1.30725 | 36.94295 | 5912 ft | 193 kts | 52° |
| 2026-05-07 15:58 | -1.29838 | 36.95339 | 6693 ft | 201 kts | 51° |
| 2026-05-07 15:59 | -1.28934 | 36.96370 | 7337 ft | 192 kts | 51° |
| 2026-05-07 15:59 | -1.28640 | 36.96702 | 7546 ft | 188 kts | 51° |